TimeEST,TemperatureF,Dew PointF,Humidity,Sea Level PressureIn,VisibilityMPH,Wind Direction,Wind SpeedMPH,Gust SpeedMPH,PrecipitationIn,Events,Conditions,WindDirDegrees,DateUTC
12:34 AM,61.0,51.1,70,29.98,10.0,South,9.2,-,0.00,,Overcast,180,2013-12-21 05:34:00
12:53 AM,60.1,52.0,75,29.96,10.0,South,9.2,-,0.00,Rain,Light Rain,180,2013-12-21 05:53:00
1:28 AM,57.9,53.1,84,29.97,10.0,South,8.1,-,0.00,,Overcast,180,2013-12-21 06:28:00
1:53 AM,57.9,53.1,84,29.94,9.0,South,4.6,-,0.01,,Overcast,170,2013-12-21 06:53:00
2:16 AM,57.0,53.1,87,29.96,9.0,South,4.6,-,0.04,Rain,Light Rain,190,2013-12-21 07:16:00
2:53 AM,57.0,54.0,89,29.94,9.0,SSE,3.5,-,0.07,Rain,Light Rain,150,2013-12-21 07:53:00
3:53 AM,57.0,53.1,87,29.92,10.0,SSE,3.5,-,0.00,,Overcast,150,2013-12-21 08:53:00
4:53 AM,60.1,53.1,78,29.91,10.0,South,8.1,-,N/A,,Overcast,180,2013-12-21 09:53:00
5:53 AM,62.1,54.0,75,29.89,10.0,South,11.5,18.4,N/A,,Overcast,170,2013-12-21 10:53:00
6:53 AM,62.1,54.0,75,29.87,10.0,South,12.7,20.7,N/A,,Overcast,180,2013-12-21 11:53:00
7:49 AM,62.6,53.6,72,29.88,10.0,South,10.4,19.6,N/A,,Mostly Cloudy,170,2013-12-21 12:49:00
7:53 AM,62.1,54.0,75,29.86,10.0,South,12.7,19.6,N/A,,Mostly Cloudy,170,2013-12-21 12:53:00
8:53 AM,63.0,53.1,70,29.86,10.0,South,10.4,18.4,N/A,,Mostly Cloudy,180,2013-12-21 13:53:00
9:53 AM,64.9,54.0,68,29.86,10.0,South,12.7,20.7,N/A,,Mostly Cloudy,190,2013-12-21 14:53:00
10:53 AM,66.9,55.9,68,29.86,10.0,South,13.8,25.3,N/A,,Overcast,180,2013-12-21 15:53:00
11:53 AM,68.0,57.9,70,29.84,10.0,South,15.0,24.2,N/A,,Overcast,180,2013-12-21 16:53:00
12:20 PM,68.0,57.9,70,29.86,10.0,South,15.0,23.0,N/A,,Overcast,190,2013-12-21 17:20:00
12:53 PM,68.0,57.9,70,29.82,10.0,South,15.0,-,N/A,,Overcast,190,2013-12-21 17:53:00
1:53 PM,68.0,59.0,73,29.81,10.0,South,10.4,-,N/A,,Overcast,190,2013-12-21 18:53:00
2:53 PM,68.0,60.1,76,29.81,10.0,South,8.1,-,N/A,,Overcast,190,2013-12-21 19:53:00
3:53 PM,66.0,61.0,84,29.81,2.5,South,4.6,-,0.01,Rain,Light Rain,180,2013-12-21 20:53:00
4:09 PM,64.9,61.0,87,29.83,4.0,SSW,4.6,-,0.02,Rain,Light Rain,200,2013-12-21 21:09:00
4:53 PM,64.0,61.0,90,29.80,8.0,SSE,4.6,-,0.03,Rain,Light Rain,160,2013-12-21 21:53:00
5:24 PM,66.0,61.0,84,29.81,10.0,South,5.8,-,0.01,Rain,Light Rain,170,2013-12-21 22:24:00
5:53 PM,66.0,60.1,81,29.79,10.0,South,5.8,-,0.02,Rain,Light Rain,180,2013-12-21 22:53:00
6:53 PM,66.9,60.1,79,29.78,10.0,South,10.4,-,0.00,,Overcast,180,2013-12-21 23:53:00
7:53 PM,69.1,59.0,70,29.75,10.0,South,12.7,21.9,N/A,,Scattered Clouds,170,2013-12-22 00:53:00
8:53 PM,71.1,59.0,66,29.73,10.0,South,20.7,38.0,0.00,,Mostly Cloudy,180,2013-12-22 01:53:00
9:53 PM,71.1,59.0,66,29.73,10.0,South,19.6,26.5,N/A,,Overcast,190,2013-12-22 02:53:00
10:53 PM,71.1,60.1,68,29.70,10.0,South,12.7,23.0,N/A,,Scattered Clouds,180,2013-12-22 03:53:00
11:53 PM,68.0,61.0,78,29.70,10.0,South,16.1,24.2,0.01,,Partly Cloudy,180,2013-12-22 04:53:00